createdAt,value
2022-11-15T00:01:20.183Z,12.00
2022-11-15T00:03:48.666Z,12.00
2022-11-15T00:06:17.231Z,12.10
2022-11-15T00:08:45.504Z,12.10
2022-11-15T00:11:14.582Z,12.10
2022-11-15T00:13:43.212Z,12.10
2022-11-15T00:16:12.232Z,12.10
2022-11-15T00:18:46.380Z,12.20
2022-11-15T00:21:18.175Z,12.20
2022-11-15T00:23:46.285Z,12.20
2022-11-15T00:26:16.423Z,12.20
2022-11-15T00:28:45.061Z,12.20
2022-11-15T00:31:15.541Z,12.20
2022-11-15T00:33:47.415Z,12.10
2022-11-15T00:36:15.755Z,12.20
2022-11-15T00:38:43.944Z,12.10
2022-11-15T00:41:12.380Z,12.10
2022-11-15T00:43:41.205Z,12.20
2022-11-15T00:46:10.721Z,12.20
2022-11-15T00:48:39.151Z,12.20
2022-11-15T00:51:08.967Z,12.20
2022-11-15T00:53:37.296Z,12.20
2022-11-15T00:56:05.795Z,12.30
2022-11-15T00:58:34.448Z,12.30
2022-11-15T01:01:13.460Z,12.30
2022-11-15T01:03:42.853Z,12.30
2022-11-15T01:06:13.477Z,12.30
2022-11-15T01:08:42.433Z,12.30
2022-11-15T01:11:12.670Z,12.40
2022-11-15T01:13:41.528Z,12.30
2022-11-15T01:16:11.753Z,12.20
2022-11-15T01:18:40.036Z,12.30
2022-11-15T01:21:11.431Z,12.30
2022-11-15T01:23:40.536Z,12.20
2022-11-15T01:26:11.671Z,12.20
2022-11-15T01:28:41.965Z,12.30
2022-11-15T01:31:14.859Z,12.40
2022-11-15T01:33:43.430Z,12.30
2022-11-15T01:36:15.464Z,12.20
2022-11-15T01:38:43.718Z,12.20
2022-11-15T01:41:20.349Z,12.20
2022-11-15T01:43:50.878Z,12.20
2022-11-15T01:46:30.581Z,12.20
2022-11-15T01:49:04.014Z,12.20
2022-11-15T01:51:35.978Z,12.20
2022-11-15T01:54:09.517Z,12.10
2022-11-15T01:56:45.336Z,12.10
2022-11-15T01:59:14.151Z,12.10
2022-11-15T02:01:43.848Z,12.20
2022-11-15T02:04:18.091Z,12.30
2022-11-15T02:06:49.150Z,12.30
2022-11-15T02:09:18.431Z,12.30
2022-11-15T02:11:48.625Z,12.20
2022-11-15T02:14:20.855Z,12.20
2022-11-15T02:16:57.667Z,12.20
2022-11-15T02:19:42.896Z,12.20
2022-11-15T02:22:27.166Z,12.20
2022-11-15T02:25:15.954Z,12.10
2022-11-15T02:28:13.036Z,12.10
2022-11-15T02:30:45.266Z,12.10
2022-11-15T02:33:25.226Z,12.10
2022-11-15T02:36:00.694Z,12.00
2022-11-15T02:38:34.996Z,12.10
2022-11-15T02:41:07.376Z,12.10
2022-11-15T02:43:59.292Z,12.00
2022-11-15T02:46:53.842Z,12.00
2022-11-15T02:49:22.483Z,12.00
2022-11-15T02:51:52.829Z,11.90
2022-11-15T02:54:24.727Z,11.90
2022-11-15T02:56:55.193Z,11.90
2022-11-15T02:59:48.566Z,12.00
2022-11-15T03:02:33.573Z,11.90
2022-11-15T03:05:11.587Z,11.90
2022-11-15T03:07:45.754Z,11.90
2022-11-15T03:10:23.597Z,11.90
2022-11-15T03:12:57.775Z,11.90
2022-11-15T03:15:30.804Z,11.90
2022-11-15T03:18:04.049Z,11.90
2022-11-15T03:20:33.700Z,11.80
2022-11-15T03:23:07.759Z,11.90
2022-11-15T03:25:40.593Z,11.80
2022-11-15T03:28:11.645Z,11.80
2022-11-15T03:30:42.347Z,11.80
2022-11-15T03:33:12.791Z,11.70
2022-11-15T03:35:44.797Z,11.70
2022-11-15T03:38:19.316Z,11.60
2022-11-15T03:40:53.483Z,11.60
2022-11-15T03:43:31.180Z,11.70
2022-11-15T03:46:03.698Z,11.60
2022-11-15T03:48:37.869Z,11.60
2022-11-15T03:51:07.300Z,11.50
2022-11-15T03:53:35.389Z,11.70
2022-11-15T03:56:03.487Z,11.60
2022-11-15T03:58:32.127Z,11.60
2022-11-15T04:01:04.115Z,11.60
2022-11-15T04:03:34.372Z,11.60
2022-11-15T04:06:02.905Z,11.70
2022-11-15T04:08:30.977Z,11.60
2022-11-15T04:11:02.208Z,11.50
2022-11-15T04:13:30.849Z,11.40
2022-11-15T04:15:59.196Z,11.40
2022-11-15T04:18:27.779Z,11.40
2022-11-15T04:21:14.492Z,11.30
2022-11-15T04:24:02.371Z,11.30
2022-11-15T04:26:30.618Z,11.20
2022-11-15T04:29:16.409Z,11.20
2022-11-15T04:31:44.545Z,11.10
2022-11-15T04:34:12.673Z,11.00
2022-11-15T04:36:59.741Z,11.00
2022-11-15T04:39:27.896Z,11.10
2022-11-15T04:41:56.026Z,11.00
2022-11-15T04:44:24.144Z,11.00
2022-11-15T04:46:52.584Z,11.00
2022-11-15T04:49:20.917Z,10.90
2022-11-15T04:51:50.537Z,10.90
2022-11-15T04:54:19.047Z,10.90
2022-11-15T04:56:47.299Z,10.90
2022-11-15T04:59:15.564Z,10.90
2022-11-15T05:01:45.259Z,10.80
2022-11-15T05:04:22.413Z,10.80
2022-11-15T05:06:53.348Z,10.70
2022-11-15T05:09:23.032Z,10.60
2022-11-15T05:11:51.260Z,10.60
2022-11-15T05:14:19.534Z,10.60
2022-11-15T05:16:48.209Z,10.50
2022-11-15T05:19:16.452Z,10.40
2022-11-15T05:21:44.606Z,10.50
2022-11-15T05:24:14.493Z,10.60
2022-11-15T05:26:42.572Z,10.50
2022-11-15T05:29:12.606Z,10.40
2022-11-15T05:31:43.554Z,10.40
2022-11-15T05:34:12.543Z,10.40
2022-11-15T05:36:43.451Z,10.40
2022-11-15T05:39:13.316Z,10.40
2022-11-15T05:41:44.935Z,10.50
2022-11-15T05:44:17.014Z,10.50
2022-11-15T05:46:45.929Z,10.50
2022-11-15T05:49:18.203Z,10.60
2022-11-15T05:51:48.770Z,10.50
2022-11-15T05:54:19.934Z,10.50
2022-11-15T05:56:48.780Z,10.50
2022-11-15T05:59:16.929Z,10.50
2022-11-15T06:01:46.008Z,10.30
2022-11-15T06:04:14.410Z,10.20
2022-11-15T06:06:42.596Z,10.20
2022-11-15T06:09:11.005Z,10.30
2022-11-15T06:11:40.465Z,10.30
2022-11-15T06:14:08.730Z,10.30
2022-11-15T06:16:37.291Z,10.30
2022-11-15T06:19:05.416Z,10.20
2022-11-15T06:21:33.515Z,10.30
2022-11-15T06:24:01.958Z,10.30
2022-11-15T06:26:30.154Z,10.20
2022-11-15T06:28:59.766Z,10.10
2022-11-15T06:31:28.191Z,10.00
2022-11-15T06:33:56.295Z,10.00
2022-11-15T06:36:24.540Z,10.00
2022-11-15T06:38:52.909Z,10.00
2022-11-15T06:41:22.029Z,9.90
2022-11-15T06:43:50.095Z,9.90
2022-11-15T06:46:19.786Z,9.90
2022-11-15T06:48:47.916Z,9.90
2022-11-15T06:51:15.977Z,9.80
2022-11-15T06:53:44.525Z,9.90
2022-11-15T06:56:12.707Z,9.80
2022-11-15T06:58:40.825Z,9.70
2022-11-15T07:01:11.500Z,9.80
2022-11-15T07:03:43.322Z,9.70
2022-11-15T07:06:12.746Z,9.60
2022-11-15T07:08:42.715Z,9.60
2022-11-15T07:11:11.200Z,9.50
2022-11-15T07:13:39.618Z,9.50
2022-11-15T07:16:10.010Z,9.50
2022-11-15T07:18:40.923Z,9.50
2022-11-15T07:21:10.792Z,9.30
2022-11-15T07:23:39.791Z,9.40
2022-11-15T07:26:09.004Z,9.20
2022-11-15T07:28:37.888Z,9.40
2022-11-15T07:31:06.991Z,9.50
2022-11-15T07:33:35.746Z,9.50
2022-11-15T07:36:07.195Z,9.50
2022-11-15T07:38:42.163Z,9.60
2022-11-15T07:41:10.860Z,9.40
2022-11-15T07:43:40.952Z,9.50
2022-11-15T07:46:10.870Z,9.60
2022-11-15T07:48:44.449Z,9.70
2022-11-15T07:51:16.076Z,9.90
2022-11-15T07:53:44.851Z,10.00
2022-11-15T07:56:13.458Z,10.00
2022-11-15T07:58:42.193Z,10.20
2022-11-15T08:01:12.445Z,10.30
2022-11-15T08:03:40.849Z,10.50
2022-11-15T08:06:09.299Z,10.70
2022-11-15T08:08:39.009Z,10.60
2022-11-15T08:11:07.386Z,10.80
2022-11-15T08:13:35.732Z,11.10
2022-11-15T08:16:06.454Z,11.30
2022-11-15T08:18:34.867Z,11.30
2022-11-15T08:21:03.972Z,11.20
2022-11-15T08:23:34.312Z,11.20
2022-11-15T08:29:59.313Z,11.40
2022-11-15T08:32:27.761Z,10.90
2022-11-15T08:34:56.405Z,10.90
2022-11-15T08:37:24.556Z,11.10
2022-11-15T08:39:52.742Z,11.00
2022-11-15T08:42:21.177Z,10.90
2022-11-15T08:44:49.291Z,10.90
2022-11-15T08:47:18.779Z,11.00
2022-11-15T08:49:47.023Z,11.20
2022-11-15T08:52:16.179Z,11.40
2022-11-15T08:54:44.313Z,11.70
2022-11-15T08:57:12.875Z,11.90
2022-11-15T08:59:41.201Z,12.10
2022-11-15T09:02:13.716Z,12.30
2022-11-15T09:04:44.114Z,12.70
2022-11-15T09:07:13.290Z,12.80
2022-11-15T09:09:41.896Z,13.10
2022-11-15T09:12:10.763Z,13.40
2022-11-15T09:14:38.899Z,13.60
2022-11-15T09:17:10.721Z,13.70
2022-11-15T09:19:39.012Z,13.70
2022-11-15T09:22:10.099Z,14.00
2022-11-15T09:24:38.613Z,13.80
2022-11-15T09:27:06.948Z,13.40
2022-11-15T09:29:35.079Z,13.50
2022-11-15T09:32:03.278Z,13.50
2022-11-15T09:34:31.436Z,13.30
2022-11-15T09:36:59.596Z,13.00
2022-11-15T09:39:32.551Z,13.10
2022-11-15T09:42:17.960Z,13.10
2022-11-15T09:45:09.350Z,13.00
2022-11-15T09:47:59.263Z,13.20
2022-11-15T09:50:36.732Z,13.50
2022-11-15T09:53:05.558Z,13.80
2022-11-15T09:55:43.185Z,14.20
2022-11-15T09:58:23.231Z,14.40
2022-11-15T10:00:54.775Z,14.00
2022-11-15T10:03:29.535Z,13.60
2022-11-15T10:06:01.561Z,13.60
2022-11-15T10:08:44.728Z,13.60
2022-11-15T10:14:13.182Z,13.40
2022-11-15T10:17:10.026Z,13.20
2022-11-15T10:19:48.738Z,13.30
2022-11-15T10:22:27.605Z,13.30
2022-11-15T10:25:13.226Z,13.40
2022-11-15T10:27:44.206Z,13.60
2022-11-15T10:30:15.689Z,13.60
2022-11-15T10:32:46.386Z,13.40
2022-11-15T10:35:24.584Z,13.20
2022-11-15T10:37:53.286Z,13.10
2022-11-15T10:40:23.622Z,12.90
2022-11-15T10:43:08.179Z,12.80
2022-11-15T10:45:36.602Z,12.80
2022-11-15T10:48:27.457Z,12.90
2022-11-15T10:50:57.244Z,13.00
2022-11-15T10:53:35.628Z,13.10
2022-11-15T10:56:09.177Z,13.20
2022-11-15T10:58:42.270Z,13.20
2022-11-15T11:01:17.501Z,13.30
2022-11-15T11:03:47.135Z,13.10
2022-11-15T11:06:18.004Z,13.00
2022-11-15T11:08:58.226Z,13.00
2022-11-15T11:11:26.942Z,13.10
2022-11-15T11:13:56.484Z,13.20
2022-11-15T11:16:44.323Z,13.10
2022-11-15T11:19:36.577Z,13.10
2022-11-15T11:22:11.552Z,13.00
2022-11-15T11:24:46.529Z,12.90
2022-11-15T11:27:24.275Z,13.00
2022-11-15T11:30:04.987Z,13.00
2022-11-15T11:32:52.614Z,13.10
2022-11-15T11:35:28.446Z,13.10
2022-11-15T11:38:09.569Z,13.00
2022-11-15T11:40:43.079Z,13.00
2022-11-15T11:43:19.481Z,13.10
2022-11-15T11:46:07.392Z,13.10
2022-11-15T11:48:44.314Z,13.10
2022-11-15T11:51:20.158Z,13.00
2022-11-15T11:53:54.402Z,13.10
2022-11-15T11:56:27.489Z,13.10
2022-11-15T11:58:58.916Z,13.10
2022-11-15T12:01:34.499Z,13.10
2022-11-15T12:04:11.628Z,13.00
2022-11-15T12:06:44.087Z,13.10
2022-11-15T12:09:18.896Z,13.10
2022-11-15T12:12:01.494Z,12.90
2022-11-15T12:14:36.218Z,13.00
2022-11-15T12:17:06.092Z,12.90
2022-11-15T12:19:34.370Z,12.90
2022-11-15T12:22:07.469Z,12.90
2022-11-15T12:24:42.388Z,12.90
2022-11-15T12:27:24.969Z,13.00
2022-11-15T12:29:58.630Z,13.00
2022-11-15T12:32:31.253Z,13.10
2022-11-15T12:35:01.132Z,13.10
2022-11-15T12:37:51.523Z,13.20
2022-11-15T12:40:23.345Z,13.30
2022-11-15T12:43:04.907Z,13.20
2022-11-15T12:45:35.013Z,13.20
2022-11-15T12:48:40.337Z,13.20
2022-11-15T12:51:10.181Z,13.30
2022-11-15T12:53:39.131Z,13.20
2022-11-15T12:56:26.566Z,13.20
2022-11-15T12:58:58.360Z,13.10
2022-11-15T13:01:59.985Z,13.00
2022-11-15T13:04:30.634Z,13.20
2022-11-15T13:07:02.572Z,13.30
2022-11-15T13:09:54.417Z,13.30
2022-11-15T13:13:07.714Z,13.30
2022-11-15T13:15:47.329Z,13.30
2022-11-15T13:18:40.694Z,13.30
2022-11-15T13:21:40.899Z,13.30
2022-11-15T13:24:15.913Z,13.30
2022-11-15T13:26:44.602Z,13.30
2022-11-15T13:29:19.431Z,13.30
2022-11-15T13:31:48.630Z,13.10
2022-11-15T13:37:30.944Z,13.20
2022-11-15T13:40:12.573Z,13.30
2022-11-15T13:42:45.508Z,13.30
2022-11-15T13:45:17.595Z,13.30
2022-11-15T13:47:45.742Z,13.30
2022-11-15T13:50:14.709Z,13.20
2022-11-15T13:52:47.443Z,13.30
2022-11-15T13:55:20.057Z,13.30
2022-11-15T13:57:53.073Z,13.20
2022-11-15T14:00:34.136Z,13.30
2022-11-15T14:03:10.142Z,13.10
2022-11-15T14:05:39.458Z,12.90
2022-11-15T14:08:26.041Z,12.80
2022-11-15T14:11:14.748Z,12.80
2022-11-15T14:13:43.704Z,12.80
2022-11-15T14:16:16.983Z,12.70
2022-11-15T14:18:49.166Z,12.60
2022-11-15T14:21:17.737Z,12.60
2022-11-15T14:23:46.317Z,12.70
2022-11-15T14:26:31.667Z,12.80
2022-11-15T14:29:19.903Z,12.80
2022-11-15T14:31:48.414Z,12.80
2022-11-15T14:34:16.629Z,12.70
2022-11-15T14:36:44.833Z,12.60
2022-11-15T14:39:13.134Z,12.50
2022-11-15T14:41:43.223Z,12.50
2022-11-15T14:44:13.607Z,12.50
2022-11-15T14:46:42.161Z,12.30
2022-11-15T14:49:10.281Z,12.40
2022-11-15T14:51:38.726Z,12.40
2022-11-15T14:54:07.626Z,12.30
2022-11-15T14:56:35.822Z,12.30
2022-11-15T14:59:05.357Z,12.40
2022-11-15T15:01:34.281Z,12.40
2022-11-15T15:04:02.378Z,12.30
2022-11-15T15:06:31.735Z,12.20
2022-11-15T15:09:00.297Z,12.10
2022-11-15T15:11:30.695Z,12.20
2022-11-15T15:14:02.353Z,12.20
2022-11-15T15:16:32.152Z,12.20
2022-11-15T15:19:00.466Z,12.20
2022-11-15T15:21:36.728Z,12.20
2022-11-15T15:24:06.431Z,12.20
2022-11-15T15:26:37.656Z,12.20
2022-11-15T15:29:06.160Z,12.10
2022-11-15T15:31:35.740Z,12.20
2022-11-15T15:34:04.541Z,12.30
2022-11-15T15:36:32.908Z,12.30
2022-11-15T15:39:01.046Z,12.30
2022-11-15T15:41:29.519Z,12.40
2022-11-15T15:43:57.909Z,12.30
2022-11-15T15:46:27.080Z,12.20
2022-11-15T15:48:56.663Z,12.20
2022-11-15T15:51:24.976Z,12.10
2022-11-15T15:53:58.243Z,12.10
2022-11-15T15:56:26.975Z,12.30
2022-11-15T15:58:56.466Z,12.30
2022-11-15T16:01:26.225Z,12.40
2022-11-15T16:03:56.091Z,12.30
2022-11-15T16:06:43.340Z,12.30
2022-11-15T16:09:16.369Z,12.40
2022-11-15T16:11:46.626Z,12.30
2022-11-15T16:14:15.155Z,12.40
2022-11-15T16:16:43.345Z,12.40
2022-11-15T16:19:13.941Z,12.40
2022-11-15T16:21:42.409Z,12.50
2022-11-15T16:24:10.759Z,12.50
2022-11-15T16:26:40.211Z,12.50
2022-11-15T16:29:10.443Z,12.50
2022-11-15T16:31:38.672Z,12.50
2022-11-15T16:34:07.406Z,12.50
2022-11-15T16:36:37.687Z,12.60
2022-11-15T16:39:06.150Z,12.50
2022-11-15T16:41:34.577Z,12.60
2022-11-15T16:44:02.785Z,12.60
2022-11-15T16:46:31.066Z,12.70
2022-11-15T16:48:59.406Z,12.70
2022-11-15T16:51:27.626Z,12.70
2022-11-15T16:53:57.268Z,12.70
2022-11-15T16:56:28.124Z,12.70
2022-11-15T16:58:58.810Z,12.70
2022-11-15T17:01:28.820Z,12.60
2022-11-15T17:03:57.296Z,12.70
2022-11-15T17:06:26.484Z,12.70
2022-11-15T17:08:56.738Z,12.80
2022-11-15T17:11:25.284Z,12.80
2022-11-15T17:13:58.537Z,12.60
2022-11-15T17:16:27.452Z,12.60
2022-11-15T17:18:55.659Z,12.60
2022-11-15T17:21:24.346Z,12.50
2022-11-15T17:23:53.562Z,12.50
2022-11-15T17:26:30.346Z,12.40
2022-11-15T17:29:01.637Z,12.40
2022-11-15T17:31:33.740Z,12.50
2022-11-15T17:34:02.919Z,12.50
2022-11-15T17:36:31.138Z,12.50
2022-11-15T17:38:59.892Z,12.40
2022-11-15T17:41:30.686Z,12.50
2022-11-15T17:44:00.082Z,12.60
2022-11-15T17:46:29.473Z,12.50
2022-11-15T17:48:58.593Z,12.50
2022-11-15T17:51:27.245Z,12.50
2022-11-15T17:53:56.460Z,12.50
2022-11-15T17:56:26.173Z,12.40
2022-11-15T17:58:57.784Z,12.40
2022-11-15T18:01:28.128Z,12.30
2022-11-15T18:03:57.281Z,12.30
2022-11-15T18:06:26.437Z,12.20
2022-11-15T18:08:56.865Z,12.20
2022-11-15T18:11:26.747Z,12.20
2022-11-15T18:13:59.244Z,12.30
2022-11-15T18:16:30.944Z,12.40
2022-11-15T18:19:00.021Z,12.40
2022-11-15T18:21:30.126Z,12.50
2022-11-15T18:23:59.735Z,12.50
2022-11-15T18:26:30.080Z,12.50
2022-11-15T18:29:04.604Z,12.50
2022-11-15T18:31:33.173Z,12.60
2022-11-15T18:34:01.963Z,12.70
2022-11-15T18:36:31.984Z,12.60
2022-11-15T18:39:02.773Z,12.60
2022-11-15T18:41:31.784Z,12.60
2022-11-15T18:44:03.390Z,12.60
2022-11-15T18:46:33.421Z,12.60
2022-11-15T18:49:03.068Z,12.50
2022-11-15T18:51:32.877Z,12.60
2022-11-15T18:54:02.651Z,12.70
2022-11-15T18:56:32.813Z,12.80
2022-11-15T18:59:04.281Z,12.90
2022-11-15T19:01:34.896Z,12.90
2022-11-15T19:04:13.130Z,12.80
2022-11-15T19:06:42.861Z,12.80
2022-11-15T19:09:13.994Z,12.90
2022-11-15T19:11:43.384Z,12.80
2022-11-15T19:14:14.150Z,12.80
2022-11-15T19:16:44.833Z,12.70
2022-11-15T19:19:15.725Z,12.60
2022-11-15T19:21:44.073Z,12.60
2022-11-15T19:24:12.773Z,12.60
2022-11-15T19:26:41.316Z,12.60
2022-11-15T19:29:11.402Z,12.80
2022-11-15T19:31:41.371Z,12.80
2022-11-15T19:34:09.755Z,12.80
2022-11-15T19:36:39.719Z,12.70
2022-11-15T19:39:10.412Z,12.70
2022-11-15T19:41:39.611Z,12.70
2022-11-15T19:44:08.051Z,12.80
2022-11-15T19:46:37.810Z,12.70
2022-11-15T19:49:10.808Z,12.70
2022-11-15T19:51:42.627Z,12.50
2022-11-15T19:54:11.259Z,12.50
2022-11-15T19:56:40.574Z,12.60
2022-11-15T19:59:11.726Z,12.70
2022-11-15T20:01:40.410Z,12.60
2022-11-15T20:04:10.971Z,12.50
2022-11-15T20:06:42.987Z,12.70
2022-11-15T20:09:14.125Z,12.80
2022-11-15T20:11:42.341Z,12.90
2022-11-15T20:14:11.804Z,12.90
2022-11-15T20:16:40.537Z,13.00
2022-11-15T20:19:12.681Z,12.90
2022-11-15T20:21:41.193Z,12.90
2022-11-15T20:24:10.089Z,12.90
2022-11-15T20:26:39.700Z,13.00
2022-11-15T20:29:10.159Z,13.10
2022-11-15T20:31:38.597Z,12.90
2022-11-15T20:34:07.303Z,13.00
2022-11-15T20:36:36.830Z,13.00
2022-11-15T20:39:05.099Z,13.10
2022-11-15T20:41:33.887Z,13.10
2022-11-15T20:44:03.123Z,13.00
2022-11-15T20:46:31.393Z,13.00
2022-11-15T20:49:00.047Z,13.00
2022-11-15T20:51:28.189Z,13.10
2022-11-15T20:53:57.661Z,13.20
2022-11-15T20:56:26.118Z,13.10
2022-11-15T20:58:54.878Z,13.10
2022-11-15T21:01:24.880Z,13.00
2022-11-15T21:03:54.825Z,12.90
2022-11-15T21:06:24.013Z,13.00
2022-11-15T21:09:10.507Z,13.10
2022-11-15T21:11:58.962Z,13.10
2022-11-15T21:14:27.329Z,13.10
2022-11-15T21:16:55.753Z,13.10
2022-11-15T21:19:28.991Z,13.00
2022-11-15T21:21:59.679Z,13.00
2022-11-15T21:24:27.912Z,13.00
2022-11-15T21:26:57.754Z,13.10
2022-11-15T21:29:26.245Z,13.10
2022-11-15T21:31:54.384Z,13.10
2022-11-15T21:34:22.818Z,13.20
2022-11-15T21:36:51.389Z,13.20
2022-11-15T21:39:19.471Z,13.10
2022-11-15T21:41:47.879Z,13.10
2022-11-15T21:44:17.836Z,13.20
2022-11-15T21:46:45.954Z,13.30
2022-11-15T21:49:14.087Z,13.30
2022-11-15T21:51:43.094Z,13.40
2022-11-15T21:54:11.433Z,13.20
2022-11-15T21:56:39.642Z,13.30
2022-11-15T21:59:07.864Z,13.40
2022-11-15T22:01:54.841Z,13.30
2022-11-15T22:04:24.255Z,13.30
2022-11-15T22:06:52.539Z,13.30
2022-11-15T22:09:20.811Z,13.30
2022-11-15T22:11:49.121Z,13.30
2022-11-15T22:14:17.625Z,13.20
2022-11-15T22:16:47.176Z,13.30
2022-11-15T22:19:15.831Z,13.20
2022-11-15T22:21:44.058Z,13.20
2022-11-15T22:24:12.441Z,13.30
2022-11-15T22:26:41.092Z,13.30
2022-11-15T22:29:09.398Z,13.30
2022-11-15T22:31:37.562Z,13.20
2022-11-15T22:34:07.177Z,13.30
2022-11-15T22:36:52.282Z,13.40
2022-11-15T22:39:23.648Z,13.40
2022-11-15T22:41:51.779Z,13.50
2022-11-15T22:44:19.851Z,13.50
2022-11-15T22:46:48.501Z,13.40
2022-11-15T22:49:17.940Z,13.40
2022-11-15T22:51:46.147Z,13.50
2022-11-15T22:54:14.689Z,13.40
2022-11-15T22:56:42.866Z,13.40
2022-11-15T22:59:11.227Z,13.40
2022-11-15T23:01:39.946Z,13.40
2022-11-15T23:04:08.077Z,13.30
2022-11-15T23:06:37.893Z,13.30
2022-11-15T23:09:06.422Z,13.30
2022-11-15T23:11:52.156Z,13.20
2022-11-15T23:14:20.836Z,13.20
2022-11-15T23:16:49.144Z,13.10
2022-11-15T23:19:17.244Z,13.10
2022-11-15T23:22:06.155Z,13.10
2022-11-15T23:24:34.662Z,13.10
2022-11-15T23:27:05.112Z,13.10
2022-11-15T23:29:53.508Z,13.00
2022-11-15T23:32:39.122Z,13.10
2022-11-15T23:35:08.009Z,13.20
2022-11-15T23:37:37.838Z,13.10
2022-11-15T23:40:07.175Z,12.90
2022-11-15T23:42:35.631Z,12.90
2022-11-15T23:45:04.100Z,12.80
2022-11-15T23:47:32.297Z,12.70
2022-11-15T23:50:00.762Z,12.60
2022-11-15T23:52:29.014Z,12.70
2022-11-15T23:54:58.494Z,12.70
2022-11-15T23:57:26.666Z,12.70
2022-11-15T23:59:55.195Z,12.70
